sensor_id;sensor_type;location;lat;lon;timestamp;P1;durP1;ratioP1;P2;durP2;ratioP2
16524;SDS011;8375;33.594;-117.718;2023-06-26T00:00:53;6.15;;;2.70;;
16524;SDS011;8375;33.594;-117.718;2023-06-26T00:03:23;3.60;;;2.70;;
16524;SDS011;8375;33.594;-117.718;2023-06-26T00:05:51;4.55;;;2.92;;
16524;SDS011;8375;33.594;-117.718;2023-06-26T00:08:20;6.95;;;3.17;;
16524;SDS011;8375;33.594;-117.718;2023-06-26T00:10:49;7.68;;;2.85;;
16524;SDS011;8375;33.594;-117.718;2023-06-26T00:13:17;5.15;;;3.20;;
16524;SDS011;8375;33.594;-117.718;2023-06-26T00:15:46;5.68;;;2.85;;
16524;SDS011;8375;33.594;-117.718;2023-06-26T00:18:15;5.57;;;2.90;;
16524;SDS011;8375;33.594;-117.718;2023-06-26T00:20:45;5.95;;;2.70;;
16524;SDS011;8375;33.594;-117.718;2023-06-26T00:23:15;6.28;;;2.67;;
16524;SDS011;8375;33.594;-117.718;2023-06-26T00:25:44;4.68;;;2.83;;
16524;SDS011;8375;33.594;-117.718;2023-06-26T00:28:13;7.70;;;3.20;;
16524;SDS011;8375;33.594;-117.718;2023-06-26T00:30:42;6.18;;;4.00;;
16524;SDS011;8375;33.594;-117.718;2023-06-26T00:33:11;6.50;;;3.33;;
16524;SDS011;8375;33.594;-117.718;2023-06-26T00:35:39;5.68;;;2.90;;
16524;SDS011;8375;33.594;-117.718;2023-06-26T00:38:10;7.03;;;3.30;;
16524;SDS011;8375;33.594;-117.718;2023-06-26T00:40:38;5.40;;;3.00;;
16524;SDS011;8375;33.594;-117.718;2023-06-26T00:43:07;9.52;;;3.58;;
16524;SDS011;8375;33.594;-117.718;2023-06-26T00:45:36;5.45;;;2.83;;
16524;SDS011;8375;33.594;-117.718;2023-06-26T00:48:04;6.03;;;2.80;;
16524;SDS011;8375;33.594;-117.718;2023-06-26T00:50:34;6.20;;;2.85;;
16524;SDS011;8375;33.594;-117.718;2023-06-26T00:53:02;6.28;;;3.20;;
16524;SDS011;8375;33.594;-117.718;2023-06-26T00:55:33;4.65;;;2.72;;
16524;SDS011;8375;33.594;-117.718;2023-06-26T00:58:01;5.25;;;3.08;;
16524;SDS011;8375;33.594;-117.718;2023-06-26T01:00:30;6.90;;;3.40;;
16524;SDS011;8375;33.594;-117.718;2023-06-26T01:02:59;6.22;;;3.80;;
16524;SDS011;8375;33.594;-117.718;2023-06-26T01:05:28;9.18;;;3.33;;
16524;SDS011;8375;33.594;-117.718;2023-06-26T01:07:57;5.30;;;3.00;;
16524;SDS011;8375;33.594;-117.718;2023-06-26T01:10:26;7.93;;;3.72;;
16524;SDS011;8375;33.594;-117.718;2023-06-26T01:12:57;5.10;;;3.00;;
16524;SDS011;8375;33.594;-117.718;2023-06-26T01:15:26;5.90;;;3.28;;
16524;SDS011;8375;33.594;-117.718;2023-06-26T01:17:54;5.20;;;3.00;;
16524;SDS011;8375;33.594;-117.718;2023-06-26T01:20:25;6.72;;;3.20;;
16524;SDS011;8375;33.594;-117.718;2023-06-26T01:22:56;5.95;;;3.42;;
16524;SDS011;8375;33.594;-117.718;2023-06-26T01:25:35;6.00;;;2.97;;
16524;SDS011;8375;33.594;-117.718;2023-06-26T01:28:18;8.73;;;3.60;;
16524;SDS011;8375;33.594;-117.718;2023-06-26T01:30:48;5.63;;;4.00;;
16524;SDS011;8375;33.594;-117.718;2023-06-26T01:33:18;5.47;;;2.97;;
16524;SDS011;8375;33.594;-117.718;2023-06-26T01:35:46;4.75;;;3.38;;
16524;SDS011;8375;33.594;-117.718;2023-06-26T01:38:16;7.43;;;3.63;;
16524;SDS011;8375;33.594;-117.718;2023-06-26T01:40:46;6.63;;;3.35;;
16524;SDS011;8375;33.594;-117.718;2023-06-26T01:43:16;6.70;;;3.63;;
16524;SDS011;8375;33.594;-117.718;2023-06-26T01:45:53;7.57;;;4.10;;
16524;SDS011;8375;33.594;-117.718;2023-06-26T01:48:27;5.45;;;3.40;;
16524;SDS011;8375;33.594;-117.718;2023-06-26T01:51:00;5.13;;;3.97;;
16524;SDS011;8375;33.594;-117.718;2023-06-26T01:53:32;8.88;;;3.58;;
16524;SDS011;8375;33.594;-117.718;2023-06-26T01:56:05;5.32;;;3.63;;
16524;SDS011;8375;33.594;-117.718;2023-06-26T01:58:42;9.07;;;3.40;;
16524;SDS011;8375;33.594;-117.718;2023-06-26T02:01:13;12.15;;;4.32;;
16524;SDS011;8375;33.594;-117.718;2023-06-26T02:03:42;7.10;;;3.63;;
16524;SDS011;8375;33.594;-117.718;2023-06-26T02:06:10;7.97;;;4.35;;
16524;SDS011;8375;33.594;-117.718;2023-06-26T02:08:39;7.43;;;3.75;;
16524;SDS011;8375;33.594;-117.718;2023-06-26T02:11:08;8.02;;;3.78;;
16524;SDS011;8375;33.594;-117.718;2023-06-26T02:13:37;7.03;;;3.33;;
16524;SDS011;8375;33.594;-117.718;2023-06-26T02:16:07;6.57;;;3.78;;
16524;SDS011;8375;33.594;-117.718;2023-06-26T02:18:35;7.50;;;3.95;;
16524;SDS011;8375;33.594;-117.718;2023-06-26T02:21:05;10.00;;;4.03;;
16524;SDS011;8375;33.594;-117.718;2023-06-26T02:23:34;6.13;;;4.00;;
16524;SDS011;8375;33.594;-117.718;2023-06-26T02:26:03;6.72;;;3.90;;
16524;SDS011;8375;33.594;-117.718;2023-06-26T02:28:32;7.70;;;4.15;;
16524;SDS011;8375;33.594;-117.718;2023-06-26T02:31:01;8.52;;;4.43;;
16524;SDS011;8375;33.594;-117.718;2023-06-26T02:33:32;8.60;;;4.07;;
16524;SDS011;8375;33.594;-117.718;2023-06-26T02:36:00;10.05;;;4.53;;
16524;SDS011;8375;33.594;-117.718;2023-06-26T02:38:29;12.37;;;4.10;;
16524;SDS011;8375;33.594;-117.718;2023-06-26T02:40:58;6.88;;;3.97;;
16524;SDS011;8375;33.594;-117.718;2023-06-26T02:43:27;6.33;;;4.27;;
16524;SDS011;8375;33.594;-117.718;2023-06-26T02:45:55;7.70;;;4.47;;
16524;SDS011;8375;33.594;-117.718;2023-06-26T02:48:24;7.80;;;4.00;;
16524;SDS011;8375;33.594;-117.718;2023-06-26T02:50:55;5.50;;;4.13;;
16524;SDS011;8375;33.594;-117.718;2023-06-26T02:53:23;10.07;;;4.10;;
16524;SDS011;8375;33.594;-117.718;2023-06-26T02:55:52;7.70;;;3.93;;
16524;SDS011;8375;33.594;-117.718;2023-06-26T02:58:21;6.43;;;4.00;;
16524;SDS011;8375;33.594;-117.718;2023-06-26T03:00:49;5.63;;;3.60;;
16524;SDS011;8375;33.594;-117.718;2023-06-26T03:03:19;8.07;;;4.00;;
16524;SDS011;8375;33.594;-117.718;2023-06-26T03:05:47;8.13;;;3.87;;
16524;SDS011;8375;33.594;-117.718;2023-06-26T03:08:18;7.00;;;4.63;;
16524;SDS011;8375;33.594;-117.718;2023-06-26T03:10:47;10.50;;;4.53;;
16524;SDS011;8375;33.594;-117.718;2023-06-26T03:13:16;10.13;;;4.27;;
16524;SDS011;8375;33.594;-117.718;2023-06-26T03:15:45;10.10;;;3.70;;
16524;SDS011;8375;33.594;-117.718;2023-06-26T03:18:13;8.97;;;4.13;;
16524;SDS011;8375;33.594;-117.718;2023-06-26T03:20:42;8.53;;;4.10;;
16524;SDS011;8375;33.594;-117.718;2023-06-26T03:23:11;8.67;;;4.17;;
16524;SDS011;8375;33.594;-117.718;2023-06-26T03:25:42;8.37;;;3.97;;
16524;SDS011;8375;33.594;-117.718;2023-06-26T03:28:10;6.97;;;4.00;;
16524;SDS011;8375;33.594;-117.718;2023-06-26T03:30:39;7.57;;;4.13;;
16524;SDS011;8375;33.594;-117.718;2023-06-26T03:33:08;7.87;;;3.90;;
16524;SDS011;8375;33.594;-117.718;2023-06-26T03:35:37;8.57;;;4.27;;
16524;SDS011;8375;33.594;-117.718;2023-06-26T03:38:06;9.63;;;4.17;;
16524;SDS011;8375;33.594;-117.718;2023-06-26T03:40:36;11.03;;;4.07;;
16524;SDS011;8375;33.594;-117.718;2023-06-26T03:43:06;6.40;;;3.63;;
16524;SDS011;8375;33.594;-117.718;2023-06-26T03:45:35;7.93;;;3.60;;
16524;SDS011;8375;33.594;-117.718;2023-06-26T03:48:04;10.07;;;3.83;;
16524;SDS011;8375;33.594;-117.718;2023-06-26T03:50:33;8.23;;;4.07;;
16524;SDS011;8375;33.594;-117.718;2023-06-26T03:53:02;8.83;;;4.40;;
16524;SDS011;8375;33.594;-117.718;2023-06-26T03:55:31;13.30;;;5.00;;
16524;SDS011;8375;33.594;-117.718;2023-06-26T03:58:00;8.60;;;4.80;;
16524;SDS011;8375;33.594;-117.718;2023-06-26T04:00:30;9.47;;;4.50;;
16524;SDS011;8375;33.594;-117.718;2023-06-26T04:02:59;11.57;;;4.70;;
16524;SDS011;8375;33.594;-117.718;2023-06-26T04:05:29;9.67;;;5.20;;
16524;SDS011;8375;33.594;-117.718;2023-06-26T04:07:58;9.70;;;4.70;;
16524;SDS011;8375;33.594;-117.718;2023-06-26T04:10:27;7.47;;;4.70;;
16524;SDS011;8375;33.594;-117.718;2023-06-26T04:12:56;8.27;;;4.50;;
16524;SDS011;8375;33.594;-117.718;2023-06-26T04:15:25;8.57;;;4.50;;
16524;SDS011;8375;33.594;-117.718;2023-06-26T04:17:56;8.50;;;4.60;;
16524;SDS011;8375;33.594;-117.718;2023-06-26T04:20:25;9.00;;;4.03;;
16524;SDS011;8375;33.594;-117.718;2023-06-26T04:22:53;7.67;;;4.43;;
16524;SDS011;8375;33.594;-117.718;2023-06-26T04:25:23;12.17;;;4.97;;
16524;SDS011;8375;33.594;-117.718;2023-06-26T04:27:54;9.20;;;4.77;;
16524;SDS011;8375;33.594;-117.718;2023-06-26T04:30:23;12.47;;;5.07;;
16524;SDS011;8375;33.594;-117.718;2023-06-26T04:32:52;8.43;;;4.70;;
16524;SDS011;8375;33.594;-117.718;2023-06-26T04:35:26;8.53;;;4.57;;
16524;SDS011;8375;33.594;-117.718;2023-06-26T04:37:55;6.87;;;3.97;;
16524;SDS011;8375;33.594;-117.718;2023-06-26T04:40:23;8.73;;;4.23;;
16524;SDS011;8375;33.594;-117.718;2023-06-26T04:42:52;9.73;;;4.63;;
16524;SDS011;8375;33.594;-117.718;2023-06-26T04:45:21;11.03;;;4.60;;
16524;SDS011;8375;33.594;-117.718;2023-06-26T04:47:50;11.43;;;4.43;;
16524;SDS011;8375;33.594;-117.718;2023-06-26T04:50:19;10.37;;;4.90;;
16524;SDS011;8375;33.594;-117.718;2023-06-26T04:52:50;8.93;;;5.07;;
16524;SDS011;8375;33.594;-117.718;2023-06-26T04:55:19;9.37;;;4.23;;
16524;SDS011;8375;33.594;-117.718;2023-06-26T04:57:49;8.33;;;4.50;;
16524;SDS011;8375;33.594;-117.718;2023-06-26T05:00:18;11.80;;;4.70;;
16524;SDS011;8375;33.594;-117.718;2023-06-26T05:02:48;7.47;;;4.43;;
16524;SDS011;8375;33.594;-117.718;2023-06-26T05:05:24;8.30;;;4.40;;
16524;SDS011;8375;33.594;-117.718;2023-06-26T05:07:55;10.10;;;4.53;;
16524;SDS011;8375;33.594;-117.718;2023-06-26T05:10:24;8.87;;;4.60;;
16524;SDS011;8375;33.594;-117.718;2023-06-26T05:12:53;8.27;;;4.00;;
16524;SDS011;8375;33.594;-117.718;2023-06-26T05:15:21;8.73;;;4.37;;
16524;SDS011;8375;33.594;-117.718;2023-06-26T05:17:50;8.63;;;4.33;;
16524;SDS011;8375;33.594;-117.718;2023-06-26T05:20:20;6.47;;;4.10;;
16524;SDS011;8375;33.594;-117.718;2023-06-26T05:22:52;11.33;;;5.07;;
16524;SDS011;8375;33.594;-117.718;2023-06-26T05:25:23;10.93;;;4.87;;
16524;SDS011;8375;33.594;-117.718;2023-06-26T05:27:55;9.77;;;4.47;;
16524;SDS011;8375;33.594;-117.718;2023-06-26T05:30:24;7.70;;;4.10;;
16524;SDS011;8375;33.594;-117.718;2023-06-26T05:32:54;8.73;;;4.40;;
16524;SDS011;8375;33.594;-117.718;2023-06-26T05:35:23;12.30;;;4.80;;
16524;SDS011;8375;33.594;-117.718;2023-06-26T05:37:56;9.27;;;4.80;;
16524;SDS011;8375;33.594;-117.718;2023-06-26T05:40:27;8.63;;;4.63;;
16524;SDS011;8375;33.594;-117.718;2023-06-26T05:42:56;13.53;;;4.80;;
16524;SDS011;8375;33.594;-117.718;2023-06-26T05:45:25;11.57;;;4.83;;
16524;SDS011;8375;33.594;-117.718;2023-06-26T05:47:54;11.47;;;5.30;;
16524;SDS011;8375;33.594;-117.718;2023-06-26T05:50:23;11.40;;;5.37;;
16524;SDS011;8375;33.594;-117.718;2023-06-26T05:52:53;16.07;;;5.87;;
16524;SDS011;8375;33.594;-117.718;2023-06-26T05:55:22;13.23;;;5.30;;
16524;SDS011;8375;33.594;-117.718;2023-06-26T05:57:53;13.10;;;5.57;;
16524;SDS011;8375;33.594;-117.718;2023-06-26T06:00:26;10.73;;;5.27;;
16524;SDS011;8375;33.594;-117.718;2023-06-26T06:02:55;8.80;;;4.70;;
16524;SDS011;8375;33.594;-117.718;2023-06-26T06:05:24;11.30;;;4.70;;
16524;SDS011;8375;33.594;-117.718;2023-06-26T06:07:52;9.90;;;5.80;;
16524;SDS011;8375;33.594;-117.718;2023-06-26T06:10:21;9.67;;;5.10;;
16524;SDS011;8375;33.594;-117.718;2023-06-26T06:12:50;7.77;;;4.63;;
16524;SDS011;8375;33.594;-117.718;2023-06-26T06:15:21;9.10;;;5.03;;
16524;SDS011;8375;33.594;-117.718;2023-06-26T06:17:50;10.50;;;5.87;;
16524;SDS011;8375;33.594;-117.718;2023-06-26T06:20:19;9.00;;;5.40;;
16524;SDS011;8375;33.594;-117.718;2023-06-26T06:22:47;9.33;;;5.37;;
16524;SDS011;8375;33.594;-117.718;2023-06-26T06:25:16;8.17;;;5.30;;
16524;SDS011;8375;33.594;-117.718;2023-06-26T06:27:45;11.43;;;5.43;;
16524;SDS011;8375;33.594;-117.718;2023-06-26T06:30:16;12.00;;;6.40;;
16524;SDS011;8375;33.594;-117.718;2023-06-26T06:32:44;13.00;;;5.57;;
16524;SDS011;8375;33.594;-117.718;2023-06-26T06:35:16;8.73;;;5.23;;
16524;SDS011;8375;33.594;-117.718;2023-06-26T06:37:45;10.40;;;5.40;;
16524;SDS011;8375;33.594;-117.718;2023-06-26T06:40:14;8.37;;;5.47;;
16524;SDS011;8375;33.594;-117.718;2023-06-26T06:42:44;12.40;;;5.73;;
16524;SDS011;8375;33.594;-117.718;2023-06-26T06:45:15;10.03;;;5.07;;
16524;SDS011;8375;33.594;-117.718;2023-06-26T06:47:44;11.10;;;5.43;;
16524;SDS011;8375;33.594;-117.718;2023-06-26T06:50:12;9.07;;;5.20;;
16524;SDS011;8375;33.594;-117.718;2023-06-26T06:52:42;8.47;;;5.07;;
16524;SDS011;8375;33.594;-117.718;2023-06-26T06:55:11;6.97;;;5.43;;
16524;SDS011;8375;33.594;-117.718;2023-06-26T06:57:40;14.03;;;5.93;;
16524;SDS011;8375;33.594;-117.718;2023-06-26T07:00:09;11.20;;;5.43;;
16524;SDS011;8375;33.594;-117.718;2023-06-26T07:02:42;9.10;;;5.63;;
16524;SDS011;8375;33.594;-117.718;2023-06-26T07:05:11;11.00;;;4.97;;
16524;SDS011;8375;33.594;-117.718;2023-06-26T07:07:41;12.27;;;6.03;;
16524;SDS011;8375;33.594;-117.718;2023-06-26T07:10:11;7.00;;;5.47;;
16524;SDS011;8375;33.594;-117.718;2023-06-26T07:12:41;9.10;;;6.00;;
16524;SDS011;8375;33.594;-117.718;2023-06-26T07:15:10;11.40;;;6.03;;
16524;SDS011;8375;33.594;-117.718;2023-06-26T07:17:41;7.13;;;5.37;;
16524;SDS011;8375;33.594;-117.718;2023-06-26T07:20:10;10.17;;;6.07;;
16524;SDS011;8375;33.594;-117.718;2023-06-26T07:22:41;9.07;;;5.23;;
16524;SDS011;8375;33.594;-117.718;2023-06-26T07:25:10;11.97;;;5.60;;
16524;SDS011;8375;33.594;-117.718;2023-06-26T07:27:39;8.40;;;5.90;;
16524;SDS011;8375;33.594;-117.718;2023-06-26T07:30:10;10.63;;;5.43;;
16524;SDS011;8375;33.594;-117.718;2023-06-26T07:32:41;14.80;;;5.97;;
16524;SDS011;8375;33.594;-117.718;2023-06-26T07:35:10;13.70;;;6.47;;
16524;SDS011;8375;33.594;-117.718;2023-06-26T07:37:38;16.10;;;5.90;;
16524;SDS011;8375;33.594;-117.718;2023-06-26T07:40:08;11.10;;;5.50;;
16524;SDS011;8375;33.594;-117.718;2023-06-26T07:42:37;12.23;;;5.87;;
16524;SDS011;8375;33.594;-117.718;2023-06-26T07:45:07;15.87;;;5.97;;
16524;SDS011;8375;33.594;-117.718;2023-06-26T07:47:38;9.83;;;5.90;;
16524;SDS011;8375;33.594;-117.718;2023-06-26T07:50:09;8.50;;;6.17;;
16524;SDS011;8375;33.594;-117.718;2023-06-26T07:52:38;10.97;;;5.53;;
16524;SDS011;8375;33.594;-117.718;2023-06-26T07:55:07;10.97;;;5.50;;
16524;SDS011;8375;33.594;-117.718;2023-06-26T07:57:36;14.93;;;6.60;;
16524;SDS011;8375;33.594;-117.718;2023-06-26T08:00:05;9.17;;;5.93;;
16524;SDS011;8375;33.594;-117.718;2023-06-26T08:02:35;11.47;;;5.90;;
16524;SDS011;8375;33.594;-117.718;2023-06-26T08:05:03;10.13;;;6.07;;
16524;SDS011;8375;33.594;-117.718;2023-06-26T08:07:34;13.17;;;6.00;;
16524;SDS011;8375;33.594;-117.718;2023-06-26T08:10:03;12.67;;;6.23;;
16524;SDS011;8375;33.594;-117.718;2023-06-26T08:12:32;14.77;;;7.10;;
16524;SDS011;8375;33.594;-117.718;2023-06-26T08:15:02;15.07;;;7.10;;
16524;SDS011;8375;33.594;-117.718;2023-06-26T08:17:31;13.00;;;6.40;;
16524;SDS011;8375;33.594;-117.718;2023-06-26T08:20:00;9.97;;;6.17;;
16524;SDS011;8375;33.594;-117.718;2023-06-26T08:22:29;13.17;;;6.50;;
16524;SDS011;8375;33.594;-117.718;2023-06-26T08:25:00;12.87;;;6.30;;
16524;SDS011;8375;33.594;-117.718;2023-06-26T08:27:31;13.33;;;6.30;;
16524;SDS011;8375;33.594;-117.718;2023-06-26T08:30:00;11.13;;;6.13;;
16524;SDS011;8375;33.594;-117.718;2023-06-26T08:32:30;10.67;;;6.73;;
16524;SDS011;8375;33.594;-117.718;2023-06-26T08:34:59;8.17;;;5.97;;
16524;SDS011;8375;33.594;-117.718;2023-06-26T08:37:28;8.03;;;5.67;;
16524;SDS011;8375;33.594;-117.718;2023-06-26T08:39:59;10.33;;;6.47;;
16524;SDS011;8375;33.594;-117.718;2023-06-26T08:42:29;13.00;;;7.10;;
16524;SDS011;8375;33.594;-117.718;2023-06-26T08:44:58;12.53;;;6.07;;
16524;SDS011;8375;33.594;-117.718;2023-06-26T08:47:27;9.93;;;6.03;;
16524;SDS011;8375;33.594;-117.718;2023-06-26T08:49:59;10.43;;;7.50;;
16524;SDS011;8375;33.594;-117.718;2023-06-26T08:52:36;9.83;;;6.10;;
16524;SDS011;8375;33.594;-117.718;2023-06-26T08:55:10;13.43;;;6.07;;
16524;SDS011;8375;33.594;-117.718;2023-06-26T08:57:40;12.13;;;6.50;;
16524;SDS011;8375;33.594;-117.718;2023-06-26T09:00:09;8.83;;;6.17;;
16524;SDS011;8375;33.594;-117.718;2023-06-26T09:02:40;13.30;;;6.50;;
16524;SDS011;8375;33.594;-117.718;2023-06-26T09:05:09;9.33;;;6.10;;
16524;SDS011;8375;33.594;-117.718;2023-06-26T09:07:38;10.03;;;6.33;;
16524;SDS011;8375;33.594;-117.718;2023-06-26T09:10:09;13.07;;;6.87;;
16524;SDS011;8375;33.594;-117.718;2023-06-26T09:12:38;10.50;;;6.27;;
16524;SDS011;8375;33.594;-117.718;2023-06-26T09:15:07;11.33;;;6.40;;
16524;SDS011;8375;33.594;-117.718;2023-06-26T09:17:38;10.83;;;6.27;;
16524;SDS011;8375;33.594;-117.718;2023-06-26T09:20:08;11.43;;;6.37;;
16524;SDS011;8375;33.594;-117.718;2023-06-26T09:22:37;15.77;;;7.03;;
16524;SDS011;8375;33.594;-117.718;2023-06-26T09:25:10;11.43;;;6.20;;
16524;SDS011;8375;33.594;-117.718;2023-06-26T09:27:39;13.80;;;6.87;;
16524;SDS011;8375;33.594;-117.718;2023-06-26T09:30:08;16.50;;;6.40;;
16524;SDS011;8375;33.594;-117.718;2023-06-26T09:32:37;11.33;;;6.23;;
16524;SDS011;8375;33.594;-117.718;2023-06-26T09:35:06;7.83;;;6.07;;
16524;SDS011;8375;33.594;-117.718;2023-06-26T09:37:35;9.37;;;6.50;;
16524;SDS011;8375;33.594;-117.718;2023-06-26T09:40:04;9.80;;;6.30;;
16524;SDS011;8375;33.594;-117.718;2023-06-26T09:42:35;9.57;;;5.90;;
16524;SDS011;8375;33.594;-117.718;2023-06-26T09:45:04;10.60;;;6.30;;
16524;SDS011;8375;33.594;-117.718;2023-06-26T09:47:34;12.47;;;6.20;;
16524;SDS011;8375;33.594;-117.718;2023-06-26T09:50:03;10.90;;;6.30;;
16524;SDS011;8375;33.594;-117.718;2023-06-26T09:52:32;11.00;;;6.70;;
16524;SDS011;8375;33.594;-117.718;2023-06-26T09:55:10;10.60;;;7.77;;
16524;SDS011;8375;33.594;-117.718;2023-06-26T09:57:41;14.23;;;7.03;;
16524;SDS011;8375;33.594;-117.718;2023-06-26T10:00:11;10.53;;;6.30;;
16524;SDS011;8375;33.594;-117.718;2023-06-26T10:02:41;10.97;;;6.13;;
16524;SDS011;8375;33.594;-117.718;2023-06-26T10:05:09;11.53;;;6.30;;
16524;SDS011;8375;33.594;-117.718;2023-06-26T10:07:38;10.47;;;6.60;;
16524;SDS011;8375;33.594;-117.718;2023-06-26T10:10:08;11.23;;;6.20;;
16524;SDS011;8375;33.594;-117.718;2023-06-26T10:12:37;12.70;;;6.03;;
16524;SDS011;8375;33.594;-117.718;2023-06-26T10:15:08;12.27;;;6.17;;
16524;SDS011;8375;33.594;-117.718;2023-06-26T10:17:39;9.87;;;6.53;;
16524;SDS011;8375;33.594;-117.718;2023-06-26T10:20:12;10.50;;;6.33;;
16524;SDS011;8375;33.594;-117.718;2023-06-26T10:22:44;11.23;;;6.37;;
16524;SDS011;8375;33.594;-117.718;2023-06-26T10:25:15;10.40;;;6.87;;
16524;SDS011;8375;33.594;-117.718;2023-06-26T10:27:46;12.47;;;6.30;;
16524;SDS011;8375;33.594;-117.718;2023-06-26T10:30:20;9.53;;;6.40;;
16524;SDS011;8375;33.594;-117.718;2023-06-26T10:32:54;9.97;;;6.07;;
16524;SDS011;8375;33.594;-117.718;2023-06-26T10:35:24;11.53;;;6.60;;
16524;SDS011;8375;33.594;-117.718;2023-06-26T10:37:53;9.83;;;6.17;;
16524;SDS011;8375;33.594;-117.718;2023-06-26T10:40:39;8.50;;;5.90;;
16524;SDS011;8375;33.594;-117.718;2023-06-26T10:43:11;10.83;;;6.47;;
16524;SDS011;8375;33.594;-117.718;2023-06-26T10:45:46;9.57;;;6.63;;
16524;SDS011;8375;33.594;-117.718;2023-06-26T10:48:19;10.47;;;6.67;;
16524;SDS011;8375;33.594;-117.718;2023-06-26T10:50:48;10.10;;;6.30;;
16524;SDS011;8375;33.594;-117.718;2023-06-26T10:53:22;18.57;;;7.37;;
16524;SDS011;8375;33.594;-117.718;2023-06-26T10:55:55;13.20;;;6.70;;
16524;SDS011;8375;33.594;-117.718;2023-06-26T10:58:30;8.20;;;6.30;;
16524;SDS011;8375;33.594;-117.718;2023-06-26T11:01:16;10.60;;;6.80;;
16524;SDS011;8375;33.594;-117.718;2023-06-26T11:03:47;10.43;;;6.23;;
16524;SDS011;8375;33.594;-117.718;2023-06-26T11:06:18;13.47;;;6.43;;
16524;SDS011;8375;33.594;-117.718;2023-06-26T11:08:50;11.03;;;6.90;;
16524;SDS011;8375;33.594;-117.718;2023-06-26T11:11:20;9.93;;;7.10;;
16524;SDS011;8375;33.594;-117.718;2023-06-26T11:13:49;10.60;;;6.90;;
16524;SDS011;8375;33.594;-117.718;2023-06-26T11:16:20;15.20;;;7.20;;
16524;SDS011;8375;33.594;-117.718;2023-06-26T11:18:49;11.17;;;6.77;;
16524;SDS011;8375;33.594;-117.718;2023-06-26T11:21:18;11.63;;;7.30;;
16524;SDS011;8375;33.594;-117.718;2023-06-26T11:23:49;11.43;;;6.77;;
16524;SDS011;8375;33.594;-117.718;2023-06-26T11:26:20;12.27;;;7.93;;
16524;SDS011;8375;33.594;-117.718;2023-06-26T11:28:49;10.53;;;6.90;;
16524;SDS011;8375;33.594;-117.718;2023-06-26T11:31:28;11.53;;;7.60;;
16524;SDS011;8375;33.594;-117.718;2023-06-26T11:33:58;11.43;;;6.67;;
16524;SDS011;8375;33.594;-117.718;2023-06-26T11:36:28;11.03;;;7.43;;
16524;SDS011;8375;33.594;-117.718;2023-06-26T11:38:59;10.50;;;6.83;;
16524;SDS011;8375;33.594;-117.718;2023-06-26T11:41:30;9.70;;;6.50;;
16524;SDS011;8375;33.594;-117.718;2023-06-26T11:44:00;10.37;;;6.80;;
16524;SDS011;8375;33.594;-117.718;2023-06-26T11:46:31;16.43;;;6.53;;
16524;SDS011;8375;33.594;-117.718;2023-06-26T11:49:02;7.47;;;6.23;;
16524;SDS011;8375;33.594;-117.718;2023-06-26T11:51:31;12.83;;;6.90;;
16524;SDS011;8375;33.594;-117.718;2023-06-26T11:54:01;11.53;;;6.97;;
16524;SDS011;8375;33.594;-117.718;2023-06-26T11:56:30;10.80;;;7.37;;
16524;SDS011;8375;33.594;-117.718;2023-06-26T11:59:00;12.47;;;6.87;;
16524;SDS011;8375;33.594;-117.718;2023-06-26T12:01:34;11.07;;;7.13;;
16524;SDS011;8375;33.594;-117.718;2023-06-26T12:04:04;11.00;;;6.60;;
16524;SDS011;8375;33.594;-117.718;2023-06-26T12:06:35;9.83;;;6.73;;
16524;SDS011;8375;33.594;-117.718;2023-06-26T12:09:06;16.00;;;7.00;;
16524;SDS011;8375;33.594;-117.718;2023-06-26T12:11:37;11.37;;;7.57;;
16524;SDS011;8375;33.594;-117.718;2023-06-26T12:14:07;10.97;;;6.67;;
16524;SDS011;8375;33.594;-117.718;2023-06-26T12:16:39;10.00;;;6.87;;
16524;SDS011;8375;33.594;-117.718;2023-06-26T12:19:08;11.90;;;7.10;;
16524;SDS011;8375;33.594;-117.718;2023-06-26T12:21:49;10.53;;;7.27;;
16524;SDS011;8375;33.594;-117.718;2023-06-26T12:24:18;12.93;;;6.90;;
16524;SDS011;8375;33.594;-117.718;2023-06-26T12:26:50;14.97;;;8.00;;
16524;SDS011;8375;33.594;-117.718;2023-06-26T12:29:20;17.03;;;7.80;;
16524;SDS011;8375;33.594;-117.718;2023-06-26T12:31:51;21.57;;;8.30;;
16524;SDS011;8375;33.594;-117.718;2023-06-26T12:34:23;24.33;;;9.63;;
16524;SDS011;8375;33.594;-117.718;2023-06-26T12:36:58;12.90;;;7.90;;
16524;SDS011;8375;33.594;-117.718;2023-06-26T12:39:29;14.23;;;8.03;;
16524;SDS011;8375;33.594;-117.718;2023-06-26T12:42:13;14.10;;;7.30;;
16524;SDS011;8375;33.594;-117.718;2023-06-26T12:44:43;9.60;;;6.43;;
16524;SDS011;8375;33.594;-117.718;2023-06-26T12:47:14;12.63;;;7.10;;
16524;SDS011;8375;33.594;-117.718;2023-06-26T12:49:43;10.00;;;6.80;;
16524;SDS011;8375;33.594;-117.718;2023-06-26T12:52:13;9.30;;;7.07;;
16524;SDS011;8375;33.594;-117.718;2023-06-26T12:54:44;13.67;;;7.43;;
16524;SDS011;8375;33.594;-117.718;2023-06-26T12:57:13;11.97;;;7.60;;
16524;SDS011;8375;33.594;-117.718;2023-06-26T12:59:42;11.90;;;7.03;;
16524;SDS011;8375;33.594;-117.718;2023-06-26T13:02:13;15.03;;;7.23;;
16524;SDS011;8375;33.594;-117.718;2023-06-26T13:04:41;8.97;;;7.00;;
16524;SDS011;8375;33.594;-117.718;2023-06-26T13:07:10;10.47;;;7.53;;
16524;SDS011;8375;33.594;-117.718;2023-06-26T13:09:39;11.20;;;6.90;;
16524;SDS011;8375;33.594;-117.718;2023-06-26T13:12:09;10.07;;;7.03;;
16524;SDS011;8375;33.594;-117.718;2023-06-26T13:14:38;14.00;;;7.47;;
16524;SDS011;8375;33.594;-117.718;2023-06-26T13:17:07;11.73;;;8.10;;
16524;SDS011;8375;33.594;-117.718;2023-06-26T13:19:37;7.83;;;7.03;;
16524;SDS011;8375;33.594;-117.718;2023-06-26T13:22:06;10.73;;;7.10;;
16524;SDS011;8375;33.594;-117.718;2023-06-26T13:24:35;12.80;;;7.33;;
16524;SDS011;8375;33.594;-117.718;2023-06-26T13:27:03;12.70;;;7.87;;
16524;SDS011;8375;33.594;-117.718;2023-06-26T13:29:32;10.07;;;6.97;;
16524;SDS011;8375;33.594;-117.718;2023-06-26T13:32:01;13.77;;;8.30;;
16524;SDS011;8375;33.594;-117.718;2023-06-26T13:34:30;11.50;;;7.33;;
16524;SDS011;8375;33.594;-117.718;2023-06-26T13:37:01;10.83;;;7.47;;
16524;SDS011;8375;33.594;-117.718;2023-06-26T13:39:30;11.40;;;8.00;;
16524;SDS011;8375;33.594;-117.718;2023-06-26T13:41:59;13.87;;;7.63;;
16524;SDS011;8375;33.594;-117.718;2023-06-26T13:44:27;16.33;;;8.30;;
16524;SDS011;8375;33.594;-117.718;2023-06-26T13:46:56;14.73;;;8.47;;
16524;SDS011;8375;33.594;-117.718;2023-06-26T13:49:25;18.80;;;8.30;;
16524;SDS011;8375;33.594;-117.718;2023-06-26T13:51:54;18.10;;;8.07;;
16524;SDS011;8375;33.594;-117.718;2023-06-26T13:54:24;11.37;;;8.80;;
16524;SDS011;8375;33.594;-117.718;2023-06-26T13:56:53;11.10;;;7.67;;
16524;SDS011;8375;33.594;-117.718;2023-06-26T13:59:23;16.77;;;7.97;;
16524;SDS011;8375;33.594;-117.718;2023-06-26T14:01:52;13.77;;;8.50;;
16524;SDS011;8375;33.594;-117.718;2023-06-26T14:04:21;17.57;;;9.00;;
16524;SDS011;8375;33.594;-117.718;2023-06-26T14:06:50;16.60;;;9.10;;
16524;SDS011;8375;33.594;-117.718;2023-06-26T14:09:19;17.47;;;8.33;;
16524;SDS011;8375;33.594;-117.718;2023-06-26T14:11:49;13.00;;;8.80;;
16524;SDS011;8375;33.594;-117.718;2023-06-26T14:14:18;16.40;;;9.27;;
16524;SDS011;8375;33.594;-117.718;2023-06-26T14:16:47;19.87;;;9.47;;
16524;SDS011;8375;33.594;-117.718;2023-06-26T14:19:16;13.30;;;8.43;;
16524;SDS011;8375;33.594;-117.718;2023-06-26T14:21:45;17.67;;;9.90;;
16524;SDS011;8375;33.594;-117.718;2023-06-26T14:24:13;17.97;;;10.43;;
16524;SDS011;8375;33.594;-117.718;2023-06-26T14:26:42;18.40;;;10.73;;
16524;SDS011;8375;33.594;-117.718;2023-06-26T14:29:12;14.93;;;10.30;;